Time;durP1;ratioP1;P1;durP2;ratioP2;P2;SDS_P1;SDS_P2;PMS_P1;PMS_P2;Temp;Humidity;BMP_temperature;BMP_pressure;BME280_temperature;BME280_humidity;BME280_pressure;Samples;Min_cycle;Max_cycle;Signal;HPM_P1;HPM_P2
2022/05/17 00:00:34;;;;;;;3.90;2.57;;;15.90;99.90;;;;;;5054412;28;20196;-62
2022/05/17 00:03:03;;;;;;;4.10;2.30;;;15.90;99.90;;;;;;5053062;28;20200;-62
2022/05/17 00:05:34;;;;;;;5.77;2.40;;;16.00;99.90;;;;;;5050429;28;20212;-62
2022/05/17 00:08:24;;;;;;;4.93;2.53;;;16.00;99.90;;;;;;5050750;28;20240;-62
2022/05/17 00:10:53;;;;;;;4.80;2.60;;;16.20;99.90;;;;;;5049966;28;20311;-63
2022/05/17 00:14:07;;;;;;;6.20;2.40;;;16.20;99.90;;;;;;5047417;28;20295;-62
2022/05/17 00:16:41;;;;;;;6.93;2.43;;;16.20;99.90;;;;;;5045533;28;20203;-63
2022/05/17 00:22:43;;;;;;;5.40;2.73;;;16.10;99.90;;;;;;5042217;28;20264;-62
2022/05/17 00:25:17;;;;;;;4.23;2.50;;;16.10;99.90;;;;;;5049537;28;20284;-62
2022/05/17 00:27:47;;;;;;;8.77;2.60;;;16.10;99.90;;;;;;5050399;28;20716;-62
2022/05/17 00:30:17;;;;;;;6.50;2.50;;;16.10;99.90;;;;;;5052411;28;20715;-62
2022/05/17 00:32:46;;;;;;;4.17;2.50;;;16.10;99.90;;;;;;5048754;28;21742;-62
2022/05/17 00:35:15;;;;;;;4.43;2.50;;;16.10;99.90;;;;;;5066535;28;20243;-62
2022/05/17 00:37:45;;;;;;;6.13;2.40;;;16.10;99.90;;;;;;5040373;28;20205;-63
2022/05/17 00:40:17;;;;;;;5.60;2.90;;;16.10;99.90;;;;;;5047807;28;20267;-62
2022/05/17 00:43:03;;;;;;;6.10;2.50;;;16.10;99.90;;;;;;5052301;28;20197;-62
2022/05/17 00:45:32;;;;;;;4.13;2.57;;;16.10;99.90;;;;;;5054513;28;20239;-62
2022/05/17 00:48:05;;;;;;;7.47;2.47;;;16.10;99.90;;;;;;5047190;28;20229;-62
2022/05/17 00:50:38;;;;;;;7.03;2.30;;;16.10;99.90;;;;;;5050442;28;20283;-63
2022/05/17 00:53:48;;;;;;;4.40;2.57;;;16.10;99.90;;;;;;5049384;28;20215;-62
2022/05/17 00:56:25;;;;;;;6.93;2.50;;;16.00;99.90;;;;;;5051117;28;20588;-62
2022/05/17 00:59:34;;;;;;;8.90;2.73;;;16.10;99.90;;;;;;5051147;28;20188;-62
2022/05/17 01:02:06;;;;;;;4.60;2.40;;;16.10;99.90;;;;;;5053400;28;20226;-62
2022/05/17 01:04:53;;;;;;;5.47;2.63;;;16.00;99.90;;;;;;5052399;28;20194;-62
2022/05/17 01:07:52;;;;;;;5.17;2.50;;;16.10;99.90;;;;;;5047233;28;20193;-62
2022/05/17 01:10:41;;;;;;;6.33;2.47;;;16.10;99.90;;;;;;5051798;28;20197;-62
2022/05/17 01:15:58;;;;;;;5.03;2.60;;;16.00;99.90;;;;;;5044342;28;20193;-62
2022/05/17 01:18:26;;;;;;;2.73;2.53;;;16.00;99.90;;;;;;5055010;28;20206;-62
2022/05/17 01:20:58;;;;;;;13.07;2.70;;;16.00;99.90;;;;;;5054771;28;20288;-62
2022/05/17 01:23:46;;;;;;;8.10;2.67;;;16.00;99.90;;;;;;5049117;28;20195;-62
2022/05/17 01:26:18;;;;;;;11.43;3.00;;;15.90;99.90;;;;;;5048710;28;20190;-63
2022/05/17 01:28:50;;;;;;;7.27;2.90;;;15.90;99.90;;;;;;5087572;28;20209;-63
2022/05/17 01:31:21;;;;;;;7.00;3.00;;;15.90;99.90;;;;;;5063472;28;20284;-62
2022/05/17 01:33:50;;;;;;;8.03;2.90;;;15.80;99.90;;;;;;5055075;28;20244;-62
2022/05/17 01:36:50;;;;;;;6.63;2.77;;;15.80;99.90;;;;;;5055632;28;20202;-62
2022/05/17 01:39:38;;;;;;;6.13;2.73;;;15.70;99.90;;;;;;5055532;28;20288;-62
2022/05/17 01:42:10;;;;;;;5.40;2.60;;;15.70;99.90;;;;;;5055586;28;20252;-62
2022/05/17 01:45:20;;;;;;;8.73;2.93;;;15.60;99.90;;;;;;5055443;28;20200;-62
2022/05/17 01:47:51;;;;;;;3.90;2.67;;;15.50;99.90;;;;;;5054984;28;20216;-63
2022/05/17 01:50:40;;;;;;;3.17;2.50;;;15.50;99.90;;;;;;5052400;28;20208;-62
2022/05/17 01:53:15;;;;;;;2.70;2.50;;;15.50;99.90;;;;;;5054985;28;20676;-63
2022/05/17 01:55:43;;;;;;;6.00;2.73;;;15.50;99.90;;;;;;5054771;28;20741;-62
2022/05/17 01:58:14;;;;;;;10.73;2.77;;;15.50;99.90;;;;;;5054957;28;20545;-62
2022/05/17 02:01:02;;;;;;;6.70;2.93;;;15.50;99.90;;;;;;5051995;28;20296;-62
2022/05/17 02:03:49;;;;;;;8.13;2.87;;;15.60;99.90;;;;;;5054172;28;20678;-62
2022/05/17 02:06:22;;;;;;;8.67;2.70;;;15.60;99.90;;;;;;5054415;28;20666;-62
2022/05/17 02:09:11;;;;;;;7.37;2.90;;;15.60;99.90;;;;;;5050228;28;20194;-63
2022/05/17 02:11:44;;;;;;;5.37;2.90;;;15.70;99.90;;;;;;5049532;28;20258;-62
2022/05/17 02:14:12;;;;;;;4.70;2.90;;;15.70;99.90;;;;;;5085693;28;20621;-62
2022/05/17 02:16:42;;;;;;;5.13;2.77;;;15.80;99.90;;;;;;5054824;28;20713;-63
2022/05/17 02:23:31;;;;;;;4.87;2.60;;;15.90;99.90;;;;;;5053436;28;20255;-62
2022/05/17 02:26:05;;;;;;;4.57;2.50;;;15.90;99.90;;;;;;5086166;28;20204;-62
2022/05/17 02:29:11;;;;;;;4.70;2.77;;;15.90;99.90;;;;;;5081628;28;20201;-62
2022/05/17 02:31:46;;;;;;;8.43;2.90;;;16.00;99.90;;;;;;5055404;28;20207;-62
2022/05/17 02:34:17;;;;;;;3.77;3.00;;;15.90;99.90;;;;;;5054159;28;20225;-63
2022/05/17 02:36:48;;;;;;;4.90;2.90;;;15.90;99.90;;;;;;5053586;28;20642;-62
2022/05/17 02:39:55;;;;;;;7.23;2.97;;;15.80;99.90;;;;;;5058076;28;20197;-63
2022/05/17 02:42:25;;;;;;;2.73;2.40;;;15.80;99.90;;;;;;5054529;28;20268;-62
2022/05/17 02:44:54;;;;;;;6.63;2.83;;;15.80;99.90;;;;;;5054278;28;20228;-63
2022/05/17 02:47:23;;;;;;;3.13;2.60;;;15.80;99.90;;;;;;5052360;28;20189;-62
2022/05/17 02:50:11;;;;;;;6.43;2.63;;;15.80;99.90;;;;;;5053953;28;20202;-62
2022/05/17 02:53:17;;;;;;;6.03;3.20;;;15.80;99.90;;;;;;5078817;28;20537;-62
2022/05/17 02:55:48;;;;;;;6.60;2.80;;;15.80;99.90;;;;;;5047762;28;20637;-62
2022/05/17 02:58:17;;;;;;;8.37;2.83;;;15.80;99.90;;;;;;5046611;28;20209;-62
2022/05/17 03:00:46;;;;;;;3.83;2.87;;;15.70;99.90;;;;;;5060466;28;20256;-62
2022/05/17 03:06:38;;;;;;;8.00;3.27;;;15.70;99.90;;;;;;5049490;28;20618;-63
2022/05/17 03:09:08;;;;;;;7.37;3.17;;;15.70;99.90;;;;;;5053740;28;20194;-62
2022/05/17 03:11:58;;;;;;;7.37;3.70;;;15.70;99.90;;;;;;5053923;28;20564;-62
2022/05/17 03:15:05;;;;;;;5.37;3.00;;;15.70;99.90;;;;;;5052590;28;20216;-62
2022/05/17 03:17:40;;;;;;;7.63;3.47;;;15.70;99.90;;;;;;5049639;28;20197;-62
2022/05/17 03:20:09;;;;;;;8.57;4.00;;;15.60;99.90;;;;;;5053960;28;20207;-62
2022/05/17 03:22:39;;;;;;;6.50;3.23;;;15.60;99.90;;;;;;5053456;28;20277;-62
2022/05/17 03:25:08;;;;;;;6.73;3.30;;;15.60;99.90;;;;;;5046821;28;20189;-62
2022/05/17 03:28:00;;;;;;;4.60;3.03;;;15.60;99.90;;;;;;5058029;28;20197;-62
2022/05/17 03:30:32;;;;;;;8.37;3.30;;;15.60;99.90;;;;;;5051810;28;20201;-62
2022/05/17 03:33:02;;;;;;;11.60;3.27;;;15.50;99.90;;;;;;5076419;28;20197;-62
2022/05/17 03:35:35;;;;;;;4.73;3.00;;;15.50;99.90;;;;;;5053255;28;20228;-62
2022/05/17 03:38:40;;;;;;;4.40;3.60;;;15.50;99.90;;;;;;5055004;28;20204;-62
2022/05/17 03:41:10;;;;;;;7.20;3.27;;;15.60;99.90;;;;;;5048078;28;20283;-62
2022/05/17 03:43:39;;;;;;;5.43;3.40;;;15.60;99.90;;;;;;5053197;28;20201;-62
2022/05/17 03:46:13;;;;;;;8.23;3.23;;;15.60;99.90;;;;;;5051817;28;20201;-62
2022/05/17 03:48:44;;;;;;;5.47;3.13;;;15.60;99.90;;;;;;5051303;28;20245;-62
2022/05/17 03:51:16;;;;;;;10.60;3.40;;;15.60;99.90;;;;;;5052892;28;20648;-62
2022/05/17 03:53:45;;;;;;;7.13;3.50;;;15.70;99.90;;;;;;5051435;28;20214;-62
2022/05/17 03:56:14;;;;;;;7.70;3.40;;;15.70;99.90;;;;;;5049840;28;20200;-62
2022/05/17 03:58:45;;;;;;;6.83;3.67;;;15.70;99.90;;;;;;5049872;28;20189;-62
2022/05/17 04:01:16;;;;;;;7.10;3.60;;;15.70;99.90;;;;;;5081190;28;20216;-62
2022/05/17 04:04:27;;;;;;;9.23;3.60;;;15.70;99.90;;;;;;5049088;28;21035;-62
2022/05/17 04:06:56;;;;;;;8.20;3.60;;;15.70;99.90;;;;;;5045708;28;20187;-63
2022/05/17 04:09:24;;;;;;;4.90;3.50;;;15.80;99.90;;;;;;5051598;28;20619;-62
2022/05/17 04:11:52;;;;;;;8.90;3.80;;;15.70;99.90;;;;;;5051639;28;20195;-62
2022/05/17 04:14:21;;;;;;;6.43;3.20;;;15.70;99.90;;;;;;5051609;28;20209;-63
2022/05/17 04:17:08;;;;;;;8.37;3.43;;;15.70;99.90;;;;;;5051679;28;20202;-62
2022/05/17 04:19:42;;;;;;;10.07;3.50;;;15.70;99.90;;;;;;5051348;28;20560;-62
2022/05/17 04:22:12;;;;;;;9.33;3.27;;;15.60;99.90;;;;;;5051473;28;20201;-63
2022/05/17 04:24:41;;;;;;;7.03;3.57;;;15.70;99.90;;;;;;5057128;28;20211;-63
2022/05/17 04:27:12;;;;;;;5.47;3.30;;;15.70;99.90;;;;;;5052770;28;20239;-62
2022/05/17 04:29:44;;;;;;;12.00;3.47;;;15.70;99.90;;;;;;5050263;28;20280;-62
2022/05/17 04:32:50;;;;;;;4.93;3.20;;;15.60;99.90;;;;;;5074881;28;20195;-62
2022/05/17 04:35:21;;;;;;;7.10;3.47;;;15.60;99.90;;;;;;5044582;28;20705;-62
2022/05/17 04:38:28;;;;;;;9.37;3.53;;;15.70;99.90;;;;;;5038545;28;20280;-62
2022/05/17 04:40:59;;;;;;;7.40;3.87;;;15.70;99.90;;;;;;5052881;28;20190;-62
2022/05/17 04:43:49;;;;;;;7.27;3.20;;;15.70;99.90;;;;;;5052412;28;20209;-63
2022/05/17 04:46:18;;;;;;;7.20;3.83;;;15.70;99.90;;;;;;5049576;28;20276;-63
2022/05/17 04:48:47;;;;;;;4.67;3.90;;;15.70;99.90;;;;;;5057592;28;20221;-63
2022/05/17 04:51:16;;;;;;;8.83;4.23;;;15.80;99.90;;;;;;5049181;28;20193;-62
2022/05/17 04:53:46;;;;;;;7.93;3.70;;;15.80;99.90;;;;;;5055375;28;20233;-63
2022/05/17 04:56:35;;;;;;;4.17;3.67;;;15.80;99.90;;;;;;5056006;28;20220;-63
2022/05/17 04:59:09;;;;;;;11.50;4.10;;;15.80;99.90;;;;;;5053186;28;20675;-62
2022/05/17 05:01:38;;;;;;;11.57;4.17;;;15.80;99.90;;;;;;5046850;28;20703;-62
2022/05/17 05:04:07;;;;;;;7.13;3.87;;;15.90;99.90;;;;;;5088615;28;20193;-61
2022/05/17 05:07:15;;;;;;;7.43;4.00;;;15.90;99.90;;;;;;5049094;28;20202;-63
2022/05/17 05:09:46;;;;;;;12.07;3.87;;;15.90;99.90;;;;;;5042506;28;20284;-62
2022/05/17 05:12:16;;;;;;;6.87;3.67;;;16.00;99.90;;;;;;5055063;28;20202;-62
2022/05/17 05:14:51;;;;;;;11.10;4.07;;;16.00;99.90;;;;;;5054669;28;20293;-62
2022/05/17 05:17:21;;;;;;;8.50;4.07;;;16.00;99.90;;;;;;5050731;28;20248;-62
2022/05/17 05:19:49;;;;;;;8.73;3.90;;;16.00;99.90;;;;;;5054236;28;20280;-62
2022/05/17 05:22:17;;;;;;;6.90;3.93;;;16.00;99.90;;;;;;5056009;28;20196;-62
2022/05/17 05:25:06;;;;;;;7.03;3.67;;;16.10;99.90;;;;;;5050705;28;20656;-63
2022/05/17 05:28:03;;;;;;;15.63;4.17;;;16.10;99.90;;;;;;5052090;28;20208;-62
2022/05/17 05:31:09;;;;;;;9.00;3.60;;;16.10;99.90;;;;;;5052860;28;20198;-62
2022/05/17 05:33:39;;;;;;;11.73;3.67;;;16.10;99.90;;;;;;5048957;28;20251;-62
2022/05/17 05:39:48;;;;;;;7.37;3.90;;;16.10;99.90;;;;;;5040872;28;20334;-62
2022/05/17 05:42:18;;;;;;;10.70;4.67;;;16.20;99.90;;;;;;5087486;28;20222;-63
2022/05/17 05:45:12;;;;;;;5.07;4.03;;;16.20;99.90;;;;;;5049625;28;20202;-62
2022/05/17 05:47:40;;;;;;;9.73;4.20;;;16.20;99.90;;;;;;5041906;28;20285;-62
2022/05/17 05:50:10;;;;;;;7.50;3.80;;;16.30;99.90;;;;;;5043779;28;20188;-62
2022/05/17 05:52:39;;;;;;;11.40;4.60;;;16.30;99.90;;;;;;5054831;28;20222;-62
2022/05/17 05:55:11;;;;;;;7.80;4.50;;;16.30;99.90;;;;;;5055415;28;20633;-62
2022/05/17 05:57:49;;;;;;;9.20;4.50;;;16.30;99.90;;;;;;5064954;28;20194;-62
2022/05/17 06:00:20;;;;;;;5.77;4.10;;;16.30;99.90;;;;;;5047950;28;20545;-62
2022/05/17 06:03:17;;;;;;;8.37;4.63;;;16.40;99.90;;;;;;5057916;28;20208;-62
2022/05/17 06:06:08;;;;;;;10.90;4.30;;;16.50;99.90;;;;;;5054887;28;20701;-62
2022/05/17 06:08:36;;;;;;;8.03;4.53;;;16.60;99.90;;;;;;5037253;28;20236;-62
2022/05/17 06:11:05;;;;;;;10.13;4.53;;;16.60;99.90;;;;;;5055094;28;20201;-62
2022/05/17 06:14:12;;;;;;;10.37;4.80;;;16.60;99.90;;;;;;5054637;28;20646;-62
2022/05/17 06:16:42;;;;;;;5.27;3.93;;;16.60;99.90;;;;;;5065305;28;20224;-62
2022/05/17 06:19:11;;;;;;;8.27;4.47;;;16.70;99.90;;;;;;5053399;28;20635;-62
2022/05/17 06:21:39;;;;;;;9.67;4.47;;;16.80;99.90;;;;;;5054877;28;20191;-62
2022/05/17 06:24:08;;;;;;;6.33;3.83;;;16.90;99.90;;;;;;5054833;28;20195;-62
2022/05/17 06:26:37;;;;;;;9.17;4.07;;;17.10;99.90;;;;;;5054285;28;20281;-62
2022/05/17 06:29:06;;;;;;;4.03;3.70;;;17.20;99.90;;;;;;5054162;28;20191;-63
2022/05/17 06:31:35;;;;;;;8.37;4.20;;;17.30;99.90;;;;;;5051806;28;20199;-63
2022/05/17 06:34:06;;;;;;;9.13;4.70;;;17.40;99.90;;;;;;5053196;28;20289;-62
2022/05/17 06:36:34;;;;;;;10.13;4.73;;;17.40;99.90;;;;;;5054047;28;20217;-62
2022/05/17 06:39:23;;;;;;;10.33;4.17;;;17.50;99.90;;;;;;5051371;28;20203;-63
2022/05/17 06:41:53;;;;;;;6.13;4.20;;;17.50;99.90;;;;;;5054475;28;20896;-62
2022/05/17 06:44:21;;;;;;;11.33;4.37;;;17.60;99.90;;;;;;5053960;28;20279;-61
2022/05/17 06:46:50;;;;;;;9.13;4.20;;;17.60;99.90;;;;;;5054580;28;20203;-61
2022/05/17 06:49:19;;;;;;;6.60;4.13;;;17.70;99.90;;;;;;5054713;28;20505;-63
2022/05/17 06:51:48;;;;;;;8.60;4.10;;;17.70;99.90;;;;;;5053324;28;20193;-62
2022/05/17 06:54:16;;;;;;;7.67;4.47;;;17.80;99.90;;;;;;5044641;28;20197;-62
2022/05/17 06:56:47;;;;;;;9.17;4.50;;;17.80;99.90;;;;;;5045932;28;20208;-62
2022/05/17 06:59:15;;;;;;;9.97;4.60;;;17.90;99.90;;;;;;5054232;28;20193;-62
2022/05/17 07:01:44;;;;;;;10.70;3.87;;;18.00;99.90;;;;;;5053933;28;20610;-62
2022/05/17 07:04:13;;;;;;;8.83;4.00;;;18.00;99.90;;;;;;5054194;28;20189;-62
2022/05/17 07:06:43;;;;;;;8.93;4.37;;;18.10;99.90;;;;;;5059003;28;20196;-63
2022/05/17 07:09:12;;;;;;;6.47;4.37;;;18.30;99.90;;;;;;5060273;28;20196;-62
2022/05/17 07:14:28;;;;;;;11.37;4.20;;;18.30;99.90;;;;;;5052995;28;20195;-62
2022/05/17 07:16:58;;;;;;;8.77;4.37;;;18.40;99.90;;;;;;5040777;28;20251;-62
2022/05/17 07:19:26;;;;;;;10.00;4.17;;;18.60;99.90;;;;;;5053966;28;20197;-63
2022/05/17 07:22:04;;;;;;;7.17;3.97;;;18.60;99.90;;;;;;5053624;28;20265;-62
2022/05/17 07:24:33;;;;;;;13.70;4.90;;;18.80;99.90;;;;;;5053367;28;20199;-62
2022/05/17 07:27:02;;;;;;;11.27;4.20;;;19.00;99.90;;;;;;5052568;28;20288;-62
2022/05/17 07:29:47;;;;;;;7.93;4.10;;;19.10;99.90;;;;;;5046987;28;20188;-62
2022/05/17 07:32:16;;;;;;;6.77;4.10;;;19.40;99.90;;;;;;5053421;28;20204;-62
2022/05/17 07:34:47;;;;;;;13.93;5.63;;;19.60;99.90;;;;;;5085346;28;20240;-62
2022/05/17 07:37:17;;;;;;;15.60;5.27;;;20.00;99.90;;;;;;5046834;28;20657;-62
2022/05/17 07:39:45;;;;;;;13.07;5.17;;;20.50;99.90;;;;;;5043106;28;20202;-62
2022/05/17 07:42:17;;;;;;;14.83;5.20;;;20.60;99.90;;;;;;5036687;28;20635;-62
2022/05/17 07:44:45;;;;;;;12.37;5.10;;;20.60;99.90;;;;;;5051473;28;20189;-60
2022/05/17 07:47:16;;;;;;;17.77;5.07;;;20.90;99.90;;;;;;5048498;28;20181;-62
2022/05/17 07:49:45;;;;;;;5.23;4.20;;;21.40;99.90;;;;;;5044284;28;20276;-62
2022/05/17 07:52:13;;;;;;;10.60;4.60;;;21.70;99.90;;;;;;5052666;28;20593;-62
2022/05/17 07:54:43;;;;;;;10.67;4.50;;;21.70;99.90;;;;;;5047501;28;20648;-62
2022/05/17 07:57:12;;;;;;;8.93;4.20;;;21.80;99.90;;;;;;5048276;28;20248;-61
2022/05/17 07:59:41;;;;;;;11.57;4.40;;;21.70;99.90;;;;;;5052192;28;20197;-62
2022/05/17 08:02:11;;;;;;;6.60;4.53;;;21.80;99.90;;;;;;5052862;28;20220;-62
2022/05/17 08:04:39;;;;;;;10.67;4.63;;;21.90;99.90;;;;;;5084572;28;20198;-62
2022/05/17 08:07:08;;;;;;;8.67;4.83;;;22.20;99.90;;;;;;5048547;28;20264;-62
2022/05/17 08:09:37;;;;;;;12.70;5.30;;;22.20;99.90;;;;;;5059713;28;20190;-62
2022/05/17 08:12:10;;;;;;;7.67;4.77;;;22.30;99.90;;;;;;5052238;28;20286;-62
2022/05/17 08:14:40;;;;;;;10.50;5.53;;;22.70;99.90;;;;;;5052458;28;20253;-61
2022/05/17 08:17:09;;;;;;;14.80;5.30;;;22.90;99.90;;;;;;5052580;28;20816;-62
2022/05/17 08:19:38;;;;;;;10.57;5.20;;;23.00;99.90;;;;;;5052687;28;20540;-61
2022/05/17 08:22:11;;;;;;;8.60;5.10;;;23.20;99.90;;;;;;5052007;28;20206;-62
2022/05/17 08:27:36;;;;;;;5.93;4.97;;;24.10;99.90;;;;;;5055491;28;20189;-61
2022/05/17 08:30:09;;;;;;;8.33;4.90;;;24.60;99.90;;;;;;5054443;28;20239;-60
2022/05/17 08:35:35;;;;;;;12.38;4.88;;;24.90;99.90;;;;;;5057020;28;20328;-60
2022/05/17 08:38:04;;;;;;;14.77;4.00;;;25.10;99.90;;;;;;5058177;28;20305;-60
2022/05/17 08:40:35;;;;;;;7.82;4.00;;;25.40;99.90;;;;;;5059168;28;20205;-60
2022/05/17 08:43:15;;;;;;;5.75;3.90;;;25.30;99.90;;;;;;5058782;28;20280;-60
2022/05/17 08:46:13;;;;;;;7.65;3.92;;;25.50;99.90;;;;;;5058101;28;20209;-61
2022/05/17 08:48:49;;;;;;;7.22;4.32;;;25.60;99.90;;;;;;5061909;28;20280;-60
2022/05/17 08:51:33;;;;;;;6.72;4.30;;;25.50;99.90;;;;;;5047271;28;20204;-60
2022/05/17 08:54:05;;;;;;;10.82;4.13;;;25.90;99.90;;;;;;5048983;28;20718;-61
2022/05/17 08:56:38;;;;;;;7.35;4.18;;;26.10;99.90;;;;;;5050412;28;20230;-60
2022/05/17 08:59:11;;;;;;;4.72;3.83;;;26.10;99.90;;;;;;5059432;28;20199;-60
2022/05/17 09:01:45;;;;;;;8.25;3.92;;;25.40;99.90;;;;;;5057096;28;20320;-60
2022/05/17 09:04:37;;;;;;;6.15;3.90;;;25.60;99.90;;;;;;5058414;28;20282;-60
2022/05/17 09:07:16;;;;;;;5.35;4.35;;;25.40;99.90;;;;;;5051156;28;20212;-62
2022/05/17 09:09:57;;;;;;;8.68;4.10;;;25.60;99.90;;;;;;5058099;28;20198;-61
2022/05/17 09:12:37;;;;;;;6.68;3.95;;;26.00;99.90;;;;;;5051638;28;20196;-62
2022/05/17 09:15:08;;;;;;;6.68;3.83;;;26.70;99.90;;;;;;5056244;28;20203;-62
2022/05/17 09:17:37;;;;;;;5.68;4.00;;;26.40;99.90;;;;;;5054907;28;20225;-62
2022/05/17 09:20:08;;;;;;;5.57;3.78;;;26.60;99.90;;;;;;5057532;28;20247;-61
2022/05/17 09:22:36;;;;;;;6.90;4.68;;;26.90;99.90;;;;;;5057901;28;20199;-62
2022/05/17 09:25:15;;;;;;;8.25;3.88;;;26.80;99.90;;;;;;5052698;28;20208;-62
2022/05/17 09:27:49;;;;;;;6.50;4.13;;;26.90;99.90;;;;;;5063955;28;20243;-62
2022/05/17 09:30:36;;;;;;;4.65;3.67;;;27.30;99.90;;;;;;5057037;28;20285;-61
2022/05/17 09:33:07;;;;;;;5.90;3.70;;;27.80;99.90;;;;;;5052657;28;20202;-61
2022/05/17 09:35:41;;;;;;;7.70;3.92;;;28.20;99.90;;;;;;5064984;28;20191;-63
2022/05/17 09:38:10;;;;;;;5.95;3.55;;;28.10;99.90;;;;;;5057811;28;20230;-62
2022/05/17 09:40:41;;;;;;;5.75;3.30;;;28.30;99.90;;;;;;5084418;28;20983;-63
2022/05/17 09:43:13;;;;;;;3.78;3.47;;;28.70;99.90;;;;;;5051297;28;20192;-64
2022/05/17 09:45:50;;;;;;;5.05;3.15;;;28.60;99.90;;;;;;5052820;28;20247;-62
2022/05/17 09:52:32;;;;;;;3.72;2.65;;;28.90;99.90;;;;;;5054644;28;20212;-61
2022/05/17 09:54:10;;;;;;;2.97;2.47;;;28.60;99.90;;;;;;5042552;28;20197;-61
2022/05/17 09:56:39;;;;;;;5.30;2.38;;;28.60;99.90;;;;;;5052146;28;20275;-63
2022/05/17 09:59:22;;;;;;;3.03;2.40;;;28.90;99.90;;;;;;5053257;28;20245;-62
2022/05/17 10:01:52;;;;;;;2.25;2.10;;;29.10;99.90;;;;;;5050530;28;20671;-61
2022/05/17 10:04:23;;;;;;;5.70;2.55;;;29.60;99.90;;;;;;5064247;28;20279;-61
2022/05/17 10:06:55;;;;;;;2.40;2.17;;;29.70;99.90;;;;;;5050950;28;20268;-63
2022/05/17 10:09:32;;;;;;;4.88;2.67;;;29.90;99.90;;;;;;5051144;28;20251;-61
2022/05/17 10:12:08;;;;;;;2.72;2.22;;;29.90;99.90;;;;;;5051555;28;20193;-62
2022/05/17 10:14:40;;;;;;;3.83;2.05;;;30.10;99.90;;;;;;5084335;28;20241;-61
2022/05/17 10:17:14;;;;;;;2.28;2.10;;;30.10;99.90;;;;;;5061245;28;20217;-62
2022/05/17 10:19:49;;;;;;;2.90;1.85;;;30.00;99.90;;;;;;5057086;28;20204;-62
2022/05/17 10:22:28;;;;;;;4.15;1.90;;;30.50;99.90;;;;;;5051810;28;20199;-62
2022/05/17 10:25:02;;;;;;;5.32;2.00;;;30.70;99.90;;;;;;5043615;28;20726;-62
2022/05/17 10:27:34;;;;;;;4.70;1.88;;;30.70;99.90;;;;;;5055274;28;20224;-61
2022/05/17 10:30:07;;;;;;;3.25;2.08;;;30.70;99.90;;;;;;5045491;28;20190;-62
2022/05/17 10:32:44;;;;;;;3.33;2.22;;;30.50;99.90;;;;;;5049530;28;20200;-62
2022/05/17 10:35:18;;;;;;;6.93;2.20;;;30.00;99.90;;;;;;5051159;28;20220;-63
2022/05/17 10:37:52;;;;;;;14.30;2.33;;;30.10;99.90;;;;;;5054378;28;20235;-62
2022/05/17 10:40:24;;;;;;;6.57;1.80;;;30.10;99.90;;;;;;5054168;28;20199;-62
2022/05/17 10:42:52;;;;;;;2.45;2.20;;;29.90;99.90;;;;;;5053441;28;20194;-62
2022/05/17 10:45:23;;;;;;;3.58;2.20;;;29.60;99.90;;;;;;5052816;28;20271;-62
2022/05/17 10:48:05;;;;;;;3.38;2.17;;;28.90;99.90;;;;;;5049218;28;20276;-62
2022/05/17 10:50:40;;;;;;;3.90;1.90;;;28.50;99.90;;;;;;5079100;28;20345;-62
2022/05/17 10:53:26;;;;;;;3.70;2.30;;;28.20;99.90;;;;;;5050714;28;20226;-62
2022/05/17 10:56:06;;;;;;;4.32;2.10;;;28.00;99.90;;;;;;5077408;28;20200;-61
2022/05/17 10:58:49;;;;;;;3.17;2.30;;;27.80;99.90;;;;;;5050943;28;20315;-61
2022/05/17 11:01:24;;;;;;;2.85;2.33;;;27.70;99.90;;;;;;5050752;28;20214;-61
2022/05/17 11:04:24;;;;;;;7.25;2.25;;;27.70;99.90;;;;;;5085434;28;20679;-62
2022/05/17 11:07:02;;;;;;;3.22;2.13;;;27.90;99.90;;;;;;5067919;28;20189;-61
2022/05/17 11:09:39;;;;;;;7.05;1.90;;;28.20;99.90;;;;;;5052557;28;20194;-62
2022/05/17 11:12:09;;;;;;;2.70;2.50;;;28.70;99.90;;;;;;5044136;28;20213;-62
2022/05/17 11:14:45;;;;;;;3.58;2.30;;;29.50;99.90;;;;;;5051932;28;20203;-62
2022/05/17 11:17:30;;;;;;;2.38;2.10;;;29.80;99.90;;;;;;5055148;28;20197;-63
2022/05/17 11:20:09;;;;;;;2.40;2.30;;;30.00;99.90;;;;;;5047815;28;20207;-61
2022/05/17 11:22:46;;;;;;;2.85;2.50;;;29.80;99.90;;;;;;5049529;28;20191;-62
2022/05/17 11:25:44;;;;;;;5.22;2.50;;;29.80;99.90;;;;;;5053192;28;20228;-61
2022/05/17 11:28:40;;;;;;;4.07;2.00;;;30.00;99.90;;;;;;5028667;28;20212;-63
2022/05/17 11:31:14;;;;;;;3.00;2.28;;;30.00;99.90;;;;;;5048257;28;20208;-62
2022/05/17 11:33:49;;;;;;;2.17;2.00;;;29.90;99.90;;;;;;5051776;28;20571;-62
2022/05/17 11:36:43;;;;;;;2.30;1.98;;;30.00;99.40;;;;;;5052546;28;20203;-65
2022/05/17 11:39:46;;;;;;;3.50;2.10;;;29.70;99.10;;;;;;5037445;28;20239;-64
2022/05/17 11:42:28;;;;;;;3.95;1.63;;;29.50;99.90;;;;;;5050295;28;20206;-60
2022/05/17 11:44:58;;;;;;;2.10;1.67;;;29.50;99.90;;;;;;5042929;28;20610;-60
2022/05/17 11:47:32;;;;;;;3.53;1.90;;;29.50;99.90;;;;;;5040489;28;20880;-59
2022/05/17 11:50:29;;;;;;;2.97;2.15;;;29.70;99.10;;;;;;5048666;28;20190;-59
2022/05/17 11:53:33;;;;;;;6.45;2.03;;;29.60;98.60;;;;;;5050227;28;20328;-59
2022/05/17 11:56:15;;;;;;;3.42;2.00;;;29.40;98.30;;;;;;5044238;28;20225;-60
2022/05/17 11:58:45;;;;;;;3.05;1.88;;;29.50;99.80;;;;;;5050942;28;20205;-59
2022/05/17 12:01:44;;;;;;;2.90;1.80;;;29.60;99.20;;;;;;5050786;28;20731;-59
2022/05/17 12:04:42;;;;;;;2.88;2.20;;;29.30;98.60;;;;;;5046872;28;20277;-59
2022/05/17 12:07:29;;;;;;;4.32;1.75;;;29.10;98.40;;;;;;5026454;28;20205;-60
2022/05/17 12:10:12;;;;;;;2.55;1.92;;;29.10;98.90;;;;;;5048390;28;20231;-58
2022/05/17 12:12:55;;;;;;;2.85;1.75;;;28.90;99.90;;;;;;5048623;28;20209;-59
2022/05/17 12:15:39;;;;;;;4.65;2.13;;;28.80;99.90;;;;;;5050675;28;20272;-60
2022/05/17 12:18:21;;;;;;;4.38;1.92;;;28.80;99.30;;;;;;5050677;28;20261;-62
2022/05/17 12:21:05;;;;;;;2.45;1.70;;;28.70;99.90;;;;;;5049349;28;20203;-61
2022/05/17 12:23:39;;;;;;;2.17;1.95;;;28.80;99.60;;;;;;5051732;28;20223;-62
2022/05/17 12:26:16;;;;;;;3.08;1.70;;;28.70;99.90;;;;;;5044915;28;20202;-60
2022/05/17 12:28:47;;;;;;;3.17;1.92;;;28.70;99.40;;;;;;5039959;28;20678;-60
2022/05/17 12:31:20;;;;;;;2.55;1.90;;;28.70;99.10;;;;;;5048385;28;20192;-60
2022/05/17 12:33:49;;;;;;;2.67;1.83;;;28.70;99.80;;;;;;5041435;28;20319;-61
2022/05/17 12:36:19;;;;;;;2.45;1.98;;;28.70;99.90;;;;;;5047841;28;20293;-60
2022/05/17 12:44:35;;;;;;;4.68;2.08;;;28.80;99.90;;;;;;5046419;28;20231;-60
2022/05/17 12:47:09;;;;;;;2.30;2.00;;;28.90;99.90;;;;;;5037329;28;20272;-60
2022/05/17 12:49:38;;;;;;;6.00;1.90;;;29.10;99.60;;;;;;5075572;28;20193;-61
2022/05/17 12:52:12;;;;;;;4.73;2.20;;;28.90;99.30;;;;;;5040559;28;20224;-61
2022/05/17 12:54:43;;;;;;;6.10;1.97;;;28.60;99.60;;;;;;5045244;28;20220;-60
2022/05/17 12:57:24;;;;;;;2.70;2.00;;;28.50;99.90;;;;;;5050255;28;20189;-61
2022/05/17 12:59:53;;;;;;;4.43;1.90;;;28.60;99.50;;;;;;5042730;28;20225;-60
2022/05/17 13:02:23;;;;;;;3.03;1.50;;;28.50;97.90;;;;;;5048121;28;20666;-60
2022/05/17 13:04:52;;;;;;;4.23;1.80;;;28.60;97.00;;;;;;5057511;28;20189;-59
2022/05/17 13:07:23;;;;;;;4.83;1.93;;;28.70;97.70;;;;;;5054243;28;20215;-61
2022/05/17 13:10:02;;;;;;;5.07;1.60;;;28.70;96.30;;;;;;5037196;28;20194;-60
2022/05/17 13:12:37;;;;;;;5.45;2.10;;;28.60;97.30;;;;;;5039973;28;20225;-61
2022/05/17 13:15:07;;;;;;;4.00;2.03;;;28.50;97.50;;;;;;5049543;28;20201;-61
2022/05/17 13:17:39;;;;;;;4.90;2.20;;;28.70;99.00;;;;;;5078110;28;20275;-60
2022/05/17 13:20:14;;;;;;;3.88;1.70;;;29.00;98.30;;;;;;5054367;28;20257;-60
2022/05/17 13:22:44;;;;;;;4.72;2.00;;;29.10;99.90;;;;;;5055941;28;20660;-60
2022/05/17 13:25:18;;;;;;;5.07;1.60;;;29.30;97.60;;;;;;5055008;28;20228;-61
2022/05/17 13:27:49;;;;;;;4.45;2.00;;;29.30;99.40;;;;;;5050875;28;20194;-61
2022/05/17 13:30:29;;;;;;;2.80;1.50;;;29.30;97.80;;;;;;5055639;28;20188;-60
2022/05/17 13:32:58;;;;;;;3.10;1.88;;;29.10;97.80;;;;;;5055312;28;20191;-60
2022/05/17 13:35:29;;;;;;;3.80;1.60;;;29.10;98.70;;;;;;5055213;28;21078;-60
2022/05/17 13:38:00;;;;;;;2.20;2.00;;;29.20;98.50;;;;;;5061702;28;20205;-60
2022/05/17 13:40:45;;;;;;;9.68;2.17;;;29.30;98.10;;;;;;5052118;28;20215;-60
2022/05/17 13:43:37;;;;;;;6.68;1.83;;;29.50;98.60;;;;;;5051983;28;20639;-60
2022/05/17 13:46:12;;;;;;;2.15;1.98;;;29.50;97.20;;;;;;5052316;28;20201;-60
2022/05/17 13:48:54;;;;;;;4.15;1.85;;;29.50;97.00;;;;;;5053345;28;20186;-61
2022/05/17 13:51:28;;;;;;;2.83;1.90;;;29.60;97.30;;;;;;5051578;28;20259;-61
2022/05/17 13:54:01;;;;;;;2.47;1.70;;;29.70;97.60;;;;;;5055364;28;20204;-60
2022/05/17 13:56:36;;;;;;;2.88;1.80;;;29.60;95.90;;;;;;5048477;28;20216;-60
2022/05/17 13:59:06;;;;;;;3.67;1.80;;;29.70;96.00;;;;;;5050778;28;20209;-61
2022/05/17 14:01:37;;;;;;;2.35;1.73;;;29.70;97.20;;;;;;5062003;28;20681;-61
2022/05/17 14:04:11;;;;;;;2.08;1.90;;;29.80;97.40;;;;;;5054401;28;20201;-61
2022/05/17 14:06:49;;;;;;;4.05;2.00;;;29.80;96.20;;;;;;5051857;28;20288;-61